sensor_id;sensor_type;location;lat;lon;timestamp;temperature;humidity
7002;DHT22;3541;53.230;10.518;2022-09-13T00:01:33;17.80;99.90
7002;DHT22;3541;53.230;10.518;2022-09-13T00:04:00;17.80;99.90
7002;DHT22;3541;53.230;10.518;2022-09-13T00:06:28;17.80;99.90
7002;DHT22;3541;53.230;10.518;2022-09-13T00:08:55;17.80;99.90
7002;DHT22;3541;53.230;10.518;2022-09-13T00:11:25;17.80;99.90
7002;DHT22;3541;53.230;10.518;2022-09-13T00:13:53;17.80;99.90
7002;DHT22;3541;53.230;10.518;2022-09-13T00:16:22;17.80;99.90
7002;DHT22;3541;53.230;10.518;2022-09-13T00:18:49;17.80;99.90
7002;DHT22;3541;53.230;10.518;2022-09-13T00:21:17;17.80;99.90
7002;DHT22;3541;53.230;10.518;2022-09-13T00:23:44;17.70;99.90
7002;DHT22;3541;53.230;10.518;2022-09-13T00:26:14;17.70;99.90
7002;DHT22;3541;53.230;10.518;2022-09-13T00:28:42;17.80;99.90
7002;DHT22;3541;53.230;10.518;2022-09-13T00:31:10;17.70;99.90
7002;DHT22;3541;53.230;10.518;2022-09-13T00:33:37;17.70;99.90
7002;DHT22;3541;53.230;10.518;2022-09-13T00:36:04;17.60;99.90
7002;DHT22;3541;53.230;10.518;2022-09-13T00:38:31;17.60;99.90
7002;DHT22;3541;53.230;10.518;2022-09-13T00:40:58;17.60;99.90
7002;DHT22;3541;53.230;10.518;2022-09-13T00:43:42;17.60;99.90
7002;DHT22;3541;53.230;10.518;2022-09-13T00:46:12;17.50;99.90
7002;DHT22;3541;53.230;10.518;2022-09-13T00:48:39;17.50;99.90
7002;DHT22;3541;53.230;10.518;2022-09-13T00:51:07;17.50;99.90
7002;DHT22;3541;53.230;10.518;2022-09-13T00:53:39;17.50;99.90
7002;DHT22;3541;53.230;10.518;2022-09-13T00:56:08;17.50;99.90
7002;DHT22;3541;53.230;10.518;2022-09-13T00:58:42;17.30;99.90
7002;DHT22;3541;53.230;10.518;2022-09-13T01:01:13;17.20;99.90
7002;DHT22;3541;53.230;10.518;2022-09-13T01:03:42;17.20;99.90
7002;DHT22;3541;53.230;10.518;2022-09-13T01:06:12;17.30;99.90
7002;DHT22;3541;53.230;10.518;2022-09-13T01:08:43;17.30;99.90
7002;DHT22;3541;53.230;10.518;2022-09-13T01:11:19;17.30;99.90
7002;DHT22;3541;53.230;10.518;2022-09-13T01:13:51;17.20;99.90
7002;DHT22;3541;53.230;10.518;2022-09-13T01:16:17;17.10;99.90
7002;DHT22;3541;53.230;10.518;2022-09-13T01:18:44;17.10;99.90
7002;DHT22;3541;53.230;10.518;2022-09-13T01:24:48;17.30;99.90
7002;DHT22;3541;53.230;10.518;2022-09-13T01:27:31;17.30;99.90
7002;DHT22;3541;53.230;10.518;2022-09-13T01:30:16;17.30;99.90
7002;DHT22;3541;53.230;10.518;2022-09-13T01:33:06;17.30;99.90
7002;DHT22;3541;53.230;10.518;2022-09-13T01:35:42;17.30;99.90
7002;DHT22;3541;53.230;10.518;2022-09-13T01:38:20;17.30;99.90
7002;DHT22;3541;53.230;10.518;2022-09-13T01:41:03;17.30;99.90
7002;DHT22;3541;53.230;10.518;2022-09-13T01:43:41;17.30;99.90
7002;DHT22;3541;53.230;10.518;2022-09-13T01:46:16;17.30;99.90
7002;DHT22;3541;53.230;10.518;2022-09-13T01:48:53;17.20;99.90
7002;DHT22;3541;53.230;10.518;2022-09-13T01:51:24;17.10;99.90
7002;DHT22;3541;53.230;10.518;2022-09-13T01:54:00;17.20;99.90
7002;DHT22;3541;53.230;10.518;2022-09-13T01:56:37;17.10;99.90
7002;DHT22;3541;53.230;10.518;2022-09-13T01:59:11;17.20;99.90
7002;DHT22;3541;53.230;10.518;2022-09-13T02:01:44;17.20;99.90
7002;DHT22;3541;53.230;10.518;2022-09-13T02:04:17;17.20;99.90
7002;DHT22;3541;53.230;10.518;2022-09-13T02:06:48;17.10;99.90
7002;DHT22;3541;53.230;10.518;2022-09-13T02:09:22;17.10;99.90
7002;DHT22;3541;53.230;10.518;2022-09-13T02:11:53;17.10;99.90
7002;DHT22;3541;53.230;10.518;2022-09-13T02:14:26;17.10;99.90
7002;DHT22;3541;53.230;10.518;2022-09-13T02:16:58;17.10;99.90
7002;DHT22;3541;53.230;10.518;2022-09-13T02:19:32;17.10;99.90
7002;DHT22;3541;53.230;10.518;2022-09-13T02:22:02;17.00;99.90
7002;DHT22;3541;53.230;10.518;2022-09-13T02:24:33;16.90;99.90
7002;DHT22;3541;53.230;10.518;2022-09-13T02:27:04;16.90;99.90
7002;DHT22;3541;53.230;10.518;2022-09-13T02:29:35;16.80;99.90
7002;DHT22;3541;53.230;10.518;2022-09-13T02:32:08;16.80;99.90
7002;DHT22;3541;53.230;10.518;2022-09-13T02:34:38;16.80;99.90
7002;DHT22;3541;53.230;10.518;2022-09-13T02:37:07;16.80;99.90
7002;DHT22;3541;53.230;10.518;2022-09-13T02:39:38;16.80;99.90
7002;DHT22;3541;53.230;10.518;2022-09-13T02:42:11;16.80;99.90
7002;DHT22;3541;53.230;10.518;2022-09-13T02:44:42;16.80;99.90
7002;DHT22;3541;53.230;10.518;2022-09-13T02:47:21;16.80;99.90
7002;DHT22;3541;53.230;10.518;2022-09-13T02:49:57;16.70;99.90
7002;DHT22;3541;53.230;10.518;2022-09-13T02:52:35;16.70;99.90
7002;DHT22;3541;53.230;10.518;2022-09-13T02:55:12;16.70;99.90
7002;DHT22;3541;53.230;10.518;2022-09-13T02:57:49;16.70;99.90
7002;DHT22;3541;53.230;10.518;2022-09-13T03:00:19;16.60;99.90
7002;DHT22;3541;53.230;10.518;2022-09-13T03:02:49;16.60;99.90
7002;DHT22;3541;53.230;10.518;2022-09-13T03:05:16;16.50;99.90
7002;DHT22;3541;53.230;10.518;2022-09-13T03:07:43;16.60;99.90
7002;DHT22;3541;53.230;10.518;2022-09-13T03:10:12;16.60;99.90
7002;DHT22;3541;53.230;10.518;2022-09-13T03:15:45;16.60;99.90
7002;DHT22;3541;53.230;10.518;2022-09-13T03:21:13;16.50;99.90
7002;DHT22;3541;53.230;10.518;2022-09-13T03:23:52;16.60;99.90
7002;DHT22;3541;53.230;10.518;2022-09-13T03:26:34;16.60;99.90
7002;DHT22;3541;53.230;10.518;2022-09-13T03:29:21;16.50;99.90
7002;DHT22;3541;53.230;10.518;2022-09-13T03:31:56;16.40;99.90
7002;DHT22;3541;53.230;10.518;2022-09-13T03:34:32;16.40;99.90
7002;DHT22;3541;53.230;10.518;2022-09-13T03:37:05;16.40;99.90
7002;DHT22;3541;53.230;10.518;2022-09-13T03:39:38;16.40;99.90
7002;DHT22;3541;53.230;10.518;2022-09-13T03:42:12;16.30;99.90
7002;DHT22;3541;53.230;10.518;2022-09-13T03:44:41;16.30;99.90
7002;DHT22;3541;53.230;10.518;2022-09-13T03:47:11;16.30;99.90
7002;DHT22;3541;53.230;10.518;2022-09-13T03:49:41;16.40;99.90
7002;DHT22;3541;53.230;10.518;2022-09-13T03:52:09;16.40;99.90
7002;DHT22;3541;53.230;10.518;2022-09-13T03:54:37;16.40;99.90
7002;DHT22;3541;53.230;10.518;2022-09-13T03:57:09;16.40;99.90
7002;DHT22;3541;53.230;10.518;2022-09-13T03:59:38;16.30;99.90
7002;DHT22;3541;53.230;10.518;2022-09-13T04:02:05;16.30;99.90
7002;DHT22;3541;53.230;10.518;2022-09-13T04:04:36;16.20;99.90
7002;DHT22;3541;53.230;10.518;2022-09-13T04:07:04;16.30;99.90
7002;DHT22;3541;53.230;10.518;2022-09-13T04:09:31;16.30;99.90
7002;DHT22;3541;53.230;10.518;2022-09-13T04:11:58;16.40;99.90
7002;DHT22;3541;53.230;10.518;2022-09-13T04:14:24;16.30;99.90
7002;DHT22;3541;53.230;10.518;2022-09-13T04:16:52;16.20;99.90
7002;DHT22;3541;53.230;10.518;2022-09-13T04:19:20;16.30;99.90
7002;DHT22;3541;53.230;10.518;2022-09-13T04:21:47;16.30;99.90
7002;DHT22;3541;53.230;10.518;2022-09-13T04:24:17;16.40;99.90
7002;DHT22;3541;53.230;10.518;2022-09-13T04:26:44;16.40;99.90
7002;DHT22;3541;53.230;10.518;2022-09-13T04:29:13;16.40;99.90
7002;DHT22;3541;53.230;10.518;2022-09-13T04:31:40;16.40;99.90
7002;DHT22;3541;53.230;10.518;2022-09-13T04:34:07;16.40;99.90
7002;DHT22;3541;53.230;10.518;2022-09-13T04:36:33;16.40;99.90
7002;DHT22;3541;53.230;10.518;2022-09-13T04:39:00;16.40;99.90
7002;DHT22;3541;53.230;10.518;2022-09-13T04:41:28;16.40;99.90
7002;DHT22;3541;53.230;10.518;2022-09-13T04:43:56;16.40;99.90
7002;DHT22;3541;53.230;10.518;2022-09-13T04:46:23;16.40;99.90
7002;DHT22;3541;53.230;10.518;2022-09-13T04:48:50;16.30;99.90
7002;DHT22;3541;53.230;10.518;2022-09-13T04:51:17;16.30;99.90
7002;DHT22;3541;53.230;10.518;2022-09-13T04:53:44;16.30;99.90
7002;DHT22;3541;53.230;10.518;2022-09-13T04:56:11;16.20;99.90
7002;DHT22;3541;53.230;10.518;2022-09-13T04:58:41;16.20;99.90
7002;DHT22;3541;53.230;10.518;2022-09-13T05:01:08;16.20;99.90
7002;DHT22;3541;53.230;10.518;2022-09-13T05:03:36;16.20;99.90
7002;DHT22;3541;53.230;10.518;2022-09-13T05:06:04;16.30;99.90
7002;DHT22;3541;53.230;10.518;2022-09-13T05:08:31;16.30;99.90
7002;DHT22;3541;53.230;10.518;2022-09-13T05:10:58;16.20;99.90
7002;DHT22;3541;53.230;10.518;2022-09-13T05:13:24;16.30;99.90
7002;DHT22;3541;53.230;10.518;2022-09-13T05:15:55;16.30;99.90
7002;DHT22;3541;53.230;10.518;2022-09-13T05:18:22;16.30;99.90
7002;DHT22;3541;53.230;10.518;2022-09-13T05:20:53;16.20;99.90
7002;DHT22;3541;53.230;10.518;2022-09-13T05:23:20;16.20;99.90
7002;DHT22;3541;53.230;10.518;2022-09-13T05:25:53;16.20;99.90
7002;DHT22;3541;53.230;10.518;2022-09-13T05:28:20;16.20;99.90
7002;DHT22;3541;53.230;10.518;2022-09-13T05:30:55;16.30;99.90
7002;DHT22;3541;53.230;10.518;2022-09-13T05:33:22;16.20;99.90
7002;DHT22;3541;53.230;10.518;2022-09-13T05:35:49;16.10;99.90
7002;DHT22;3541;53.230;10.518;2022-09-13T05:38:16;16.10;99.90
7002;DHT22;3541;53.230;10.518;2022-09-13T05:40:42;16.20;99.90
7002;DHT22;3541;53.230;10.518;2022-09-13T05:43:09;16.20;99.90
7002;DHT22;3541;53.230;10.518;2022-09-13T05:45:36;16.20;99.90
7002;DHT22;3541;53.230;10.518;2022-09-13T05:48:04;16.10;99.90
7002;DHT22;3541;53.230;10.518;2022-09-13T05:50:35;16.20;99.90
7002;DHT22;3541;53.230;10.518;2022-09-13T05:53:02;16.20;99.90
7002;DHT22;3541;53.230;10.518;2022-09-13T05:55:28;16.10;99.90
7002;DHT22;3541;53.230;10.518;2022-09-13T05:57:55;16.20;99.90
7002;DHT22;3541;53.230;10.518;2022-09-13T06:00:22;16.10;99.90
7002;DHT22;3541;53.230;10.518;2022-09-13T06:02:49;16.00;99.90
7002;DHT22;3541;53.230;10.518;2022-09-13T06:05:17;16.00;99.90
7002;DHT22;3541;53.230;10.518;2022-09-13T06:07:44;16.10;99.90
7002;DHT22;3541;53.230;10.518;2022-09-13T06:10:11;16.20;99.90
7002;DHT22;3541;53.230;10.518;2022-09-13T06:12:37;16.20;99.90
7002;DHT22;3541;53.230;10.518;2022-09-13T06:15:05;16.30;99.90
7002;DHT22;3541;53.230;10.518;2022-09-13T06:17:31;16.30;99.90
7002;DHT22;3541;53.230;10.518;2022-09-13T06:19:58;16.40;99.90
7002;DHT22;3541;53.230;10.518;2022-09-13T06:22:26;16.20;99.90
7002;DHT22;3541;53.230;10.518;2022-09-13T06:24:57;16.30;99.90
7002;DHT22;3541;53.230;10.518;2022-09-13T06:27:24;16.30;99.90
7002;DHT22;3541;53.230;10.518;2022-09-13T06:29:50;16.20;99.90
7002;DHT22;3541;53.230;10.518;2022-09-13T06:32:17;16.20;99.90
7002;DHT22;3541;53.230;10.518;2022-09-13T06:34:43;16.20;99.90
7002;DHT22;3541;53.230;10.518;2022-09-13T06:37:10;16.20;99.90
7002;DHT22;3541;53.230;10.518;2022-09-13T06:39:39;16.20;99.90
7002;DHT22;3541;53.230;10.518;2022-09-13T06:42:06;16.20;99.90
7002;DHT22;3541;53.230;10.518;2022-09-13T06:44:33;16.20;99.90
7002;DHT22;3541;53.230;10.518;2022-09-13T06:46:59;16.20;99.90
7002;DHT22;3541;53.230;10.518;2022-09-13T06:49:26;16.30;99.90
7002;DHT22;3541;53.230;10.518;2022-09-13T06:51:53;16.30;99.90
7002;DHT22;3541;53.230;10.518;2022-09-13T06:54:20;16.40;99.90
7002;DHT22;3541;53.230;10.518;2022-09-13T06:56:48;16.40;99.90
7002;DHT22;3541;53.230;10.518;2022-09-13T06:59:14;16.40;99.90
7002;DHT22;3541;53.230;10.518;2022-09-13T07:01:42;16.50;99.90
7002;DHT22;3541;53.230;10.518;2022-09-13T07:04:10;16.40;99.90
7002;DHT22;3541;53.230;10.518;2022-09-13T07:06:39;16.50;99.90
7002;DHT22;3541;53.230;10.518;2022-09-13T07:09:09;16.50;99.90
7002;DHT22;3541;53.230;10.518;2022-09-13T07:11:38;16.40;99.90
7002;DHT22;3541;53.230;10.518;2022-09-13T07:14:07;16.40;99.90
7002;DHT22;3541;53.230;10.518;2022-09-13T07:16:35;16.50;99.90
7002;DHT22;3541;53.230;10.518;2022-09-13T07:19:03;16.50;99.90
7002;DHT22;3541;53.230;10.518;2022-09-13T07:21:31;16.50;99.90
7002;DHT22;3541;53.230;10.518;2022-09-13T07:23:58;16.50;99.90
7002;DHT22;3541;53.230;10.518;2022-09-13T07:26:26;16.60;99.90
7002;DHT22;3541;53.230;10.518;2022-09-13T07:28:55;16.60;99.90
7002;DHT22;3541;53.230;10.518;2022-09-13T07:31:25;16.70;99.90
7002;DHT22;3541;53.230;10.518;2022-09-13T07:33:53;16.70;99.90
7002;DHT22;3541;53.230;10.518;2022-09-13T07:36:21;16.80;99.90
7002;DHT22;3541;53.230;10.518;2022-09-13T07:38:47;16.80;99.90
7002;DHT22;3541;53.230;10.518;2022-09-13T07:41:16;16.90;99.90
7002;DHT22;3541;53.230;10.518;2022-09-13T07:43:43;16.90;99.90
7002;DHT22;3541;53.230;10.518;2022-09-13T07:46:11;16.90;99.90
7002;DHT22;3541;53.230;10.518;2022-09-13T07:48:41;16.90;99.90
7002;DHT22;3541;53.230;10.518;2022-09-13T07:51:09;16.90;99.90
7002;DHT22;3541;53.230;10.518;2022-09-13T07:53:37;16.90;99.90
7002;DHT22;3541;53.230;10.518;2022-09-13T07:56:06;16.80;99.90
7002;DHT22;3541;53.230;10.518;2022-09-13T07:58:34;16.90;99.90
7002;DHT22;3541;53.230;10.518;2022-09-13T08:01:04;16.90;99.90
7002;DHT22;3541;53.230;10.518;2022-09-13T08:03:32;16.80;99.90
7002;DHT22;3541;53.230;10.518;2022-09-13T08:06:00;16.80;99.90
7002;DHT22;3541;53.230;10.518;2022-09-13T08:08:27;16.90;99.90
7002;DHT22;3541;53.230;10.518;2022-09-13T08:10:54;17.00;99.90
7002;DHT22;3541;53.230;10.518;2022-09-13T08:13:22;17.00;99.90
7002;DHT22;3541;53.230;10.518;2022-09-13T08:15:48;17.00;99.90
7002;DHT22;3541;53.230;10.518;2022-09-13T08:18:16;17.00;99.90
7002;DHT22;3541;53.230;10.518;2022-09-13T08:20:42;17.10;99.90
7002;DHT22;3541;53.230;10.518;2022-09-13T08:23:11;17.10;99.90
7002;DHT22;3541;53.230;10.518;2022-09-13T08:25:39;17.10;99.90
7002;DHT22;3541;53.230;10.518;2022-09-13T08:28:06;17.30;99.90
7002;DHT22;3541;53.230;10.518;2022-09-13T08:30:33;17.40;99.90
7002;DHT22;3541;53.230;10.518;2022-09-13T08:33:01;17.40;99.90
7002;DHT22;3541;53.230;10.518;2022-09-13T08:35:28;17.30;99.90
7002;DHT22;3541;53.230;10.518;2022-09-13T08:37:55;17.40;99.90
7002;DHT22;3541;53.230;10.518;2022-09-13T08:40:26;17.50;99.90
7002;DHT22;3541;53.230;10.518;2022-09-13T08:42:57;17.50;99.90
7002;DHT22;3541;53.230;10.518;2022-09-13T08:45:26;17.50;99.90
7002;DHT22;3541;53.230;10.518;2022-09-13T08:47:56;17.40;99.90
7002;DHT22;3541;53.230;10.518;2022-09-13T08:50:26;17.30;99.90
7002;DHT22;3541;53.230;10.518;2022-09-13T08:53:00;17.30;99.90
7002;DHT22;3541;53.230;10.518;2022-09-13T08:55:38;17.40;99.90
7002;DHT22;3541;53.230;10.518;2022-09-13T08:58:16;17.30;99.90
7002;DHT22;3541;53.230;10.518;2022-09-13T09:00:57;17.40;99.90
7002;DHT22;3541;53.230;10.518;2022-09-13T09:03:30;17.50;99.90
7002;DHT22;3541;53.230;10.518;2022-09-13T09:06:05;17.40;99.90
7002;DHT22;3541;53.230;10.518;2022-09-13T09:08:39;17.40;99.90
7002;DHT22;3541;53.230;10.518;2022-09-13T09:11:13;17.50;99.90
7002;DHT22;3541;53.230;10.518;2022-09-13T09:13:46;17.50;99.90
7002;DHT22;3541;53.230;10.518;2022-09-13T09:16:25;17.60;99.90
7002;DHT22;3541;53.230;10.518;2022-09-13T09:18:54;17.50;99.90
7002;DHT22;3541;53.230;10.518;2022-09-13T09:21:24;17.60;99.90
7002;DHT22;3541;53.230;10.518;2022-09-13T09:23:53;17.70;99.90
7002;DHT22;3541;53.230;10.518;2022-09-13T09:26:22;17.70;99.90
7002;DHT22;3541;53.230;10.518;2022-09-13T09:28:54;17.80;99.90
7002;DHT22;3541;53.230;10.518;2022-09-13T09:31:27;17.80;99.90
7002;DHT22;3541;53.230;10.518;2022-09-13T09:34:08;17.90;99.90
7002;DHT22;3541;53.230;10.518;2022-09-13T09:36:39;18.00;99.90
7002;DHT22;3541;53.230;10.518;2022-09-13T09:39:11;17.90;99.90
7002;DHT22;3541;53.230;10.518;2022-09-13T09:41:39;17.90;99.90
7002;DHT22;3541;53.230;10.518;2022-09-13T09:44:15;17.90;99.90
7002;DHT22;3541;53.230;10.518;2022-09-13T09:46:47;17.90;99.90
7002;DHT22;3541;53.230;10.518;2022-09-13T09:49:17;17.80;99.90
7002;DHT22;3541;53.230;10.518;2022-09-13T09:52:05;17.70;99.90
7002;DHT22;3541;53.230;10.518;2022-09-13T09:54:33;17.70;99.90
7002;DHT22;3541;53.230;10.518;2022-09-13T09:57:01;17.70;99.90
7002;DHT22;3541;53.230;10.518;2022-09-13T09:59:31;17.90;99.90
7002;DHT22;3541;53.230;10.518;2022-09-13T10:01:59;18.00;99.90
7002;DHT22;3541;53.230;10.518;2022-09-13T10:04:29;18.20;99.90
7002;DHT22;3541;53.230;10.518;2022-09-13T10:07:10;18.10;99.90
7002;DHT22;3541;53.230;10.518;2022-09-13T10:09:54;18.20;99.90
7002;DHT22;3541;53.230;10.518;2022-09-13T10:12:27;18.30;99.90
7002;DHT22;3541;53.230;10.518;2022-09-13T10:15:12;18.30;99.90
7002;DHT22;3541;53.230;10.518;2022-09-13T10:17:39;18.30;99.90
7002;DHT22;3541;53.230;10.518;2022-09-13T10:20:21;18.30;99.90
7002;DHT22;3541;53.230;10.518;2022-09-13T10:23:09;18.30;99.90
7002;DHT22;3541;53.230;10.518;2022-09-13T10:25:37;18.50;99.90
7002;DHT22;3541;53.230;10.518;2022-09-13T10:28:11;18.60;99.90
7002;DHT22;3541;53.230;10.518;2022-09-13T10:30:41;18.70;99.90
7002;DHT22;3541;53.230;10.518;2022-09-13T10:33:23;18.80;99.90
7002;DHT22;3541;53.230;10.518;2022-09-13T10:35:53;18.90;99.90
7002;DHT22;3541;53.230;10.518;2022-09-13T10:38:25;18.90;99.90
7002;DHT22;3541;53.230;10.518;2022-09-13T10:40:54;18.90;99.90
7002;DHT22;3541;53.230;10.518;2022-09-13T10:43:22;19.00;99.90
7002;DHT22;3541;53.230;10.518;2022-09-13T10:45:50;19.00;99.90
7002;DHT22;3541;53.230;10.518;2022-09-13T10:48:18;19.00;99.90
7002;DHT22;3541;53.230;10.518;2022-09-13T10:51:01;18.90;99.90
7002;DHT22;3541;53.230;10.518;2022-09-13T10:53:39;18.90;99.90
7002;DHT22;3541;53.230;10.518;2022-09-13T10:56:18;19.00;99.90
7002;DHT22;3541;53.230;10.518;2022-09-13T10:58:46;19.00;99.90
7002;DHT22;3541;53.230;10.518;2022-09-13T11:01:37;19.00;99.90
7002;DHT22;3541;53.230;10.518;2022-09-13T11:04:32;19.00;99.90
7002;DHT22;3541;53.230;10.518;2022-09-13T11:07:14;19.00;99.90
7002;DHT22;3541;53.230;10.518;2022-09-13T11:09:51;19.00;99.90
7002;DHT22;3541;53.230;10.518;2022-09-13T11:12:27;19.10;99.90
7002;DHT22;3541;53.230;10.518;2022-09-13T11:15:03;19.10;99.90
7002;DHT22;3541;53.230;10.518;2022-09-13T11:17:48;19.20;99.90
7002;DHT22;3541;53.230;10.518;2022-09-13T11:20:21;19.40;99.90
7002;DHT22;3541;53.230;10.518;2022-09-13T11:23:10;19.60;99.90
7002;DHT22;3541;53.230;10.518;2022-09-13T11:25:55;19.80;99.90
7002;DHT22;3541;53.230;10.518;2022-09-13T11:28:29;20.10;99.90
7002;DHT22;3541;53.230;10.518;2022-09-13T11:31:15;20.30;99.90
7002;DHT22;3541;53.230;10.518;2022-09-13T11:33:54;20.30;99.90
7002;DHT22;3541;53.230;10.518;2022-09-13T11:36:45;20.20;99.90
7002;DHT22;3541;53.230;10.518;2022-09-13T11:39:22;20.30;99.90
7002;DHT22;3541;53.230;10.518;2022-09-13T11:42:01;20.40;99.90
7002;DHT22;3541;53.230;10.518;2022-09-13T11:44:47;20.60;99.90
7002;DHT22;3541;53.230;10.518;2022-09-13T11:47:26;20.90;99.90
7002;DHT22;3541;53.230;10.518;2022-09-13T11:50:06;21.10;99.90
7002;DHT22;3541;53.230;10.518;2022-09-13T11:52:45;21.10;99.90
7002;DHT22;3541;53.230;10.518;2022-09-13T11:55:17;21.00;99.90
7002;DHT22;3541;53.230;10.518;2022-09-13T11:57:48;20.90;99.90
7002;DHT22;3541;53.230;10.518;2022-09-13T12:00:20;20.60;99.90
7002;DHT22;3541;53.230;10.518;2022-09-13T12:02:56;20.40;99.90
7002;DHT22;3541;53.230;10.518;2022-09-13T12:05:27;20.20;99.90
7002;DHT22;3541;53.230;10.518;2022-09-13T12:07:58;19.90;99.90
7002;DHT22;3541;53.230;10.518;2022-09-13T12:10:29;19.80;99.90
7002;DHT22;3541;53.230;10.518;2022-09-13T12:12:58;19.70;99.90
7002;DHT22;3541;53.230;10.518;2022-09-13T12:15:31;19.70;99.90
7002;DHT22;3541;53.230;10.518;2022-09-13T12:18:04;19.90;99.90
7002;DHT22;3541;53.230;10.518;2022-09-13T12:20:34;20.20;99.90
7002;DHT22;3541;53.230;10.518;2022-09-13T12:23:04;20.60;99.90
7002;DHT22;3541;53.230;10.518;2022-09-13T12:25:37;20.80;99.90
7002;DHT22;3541;53.230;10.518;2022-09-13T12:28:12;21.10;99.90
7002;DHT22;3541;53.230;10.518;2022-09-13T12:30:46;21.20;99.90
7002;DHT22;3541;53.230;10.518;2022-09-13T12:33:15;21.30;99.90
7002;DHT22;3541;53.230;10.518;2022-09-13T12:35:50;21.40;99.90
7002;DHT22;3541;53.230;10.518;2022-09-13T12:41:30;21.70;99.90
7002;DHT22;3541;53.230;10.518;2022-09-13T12:44:22;21.60;99.90
7002;DHT22;3541;53.230;10.518;2022-09-13T12:47:09;21.80;99.90
7002;DHT22;3541;53.230;10.518;2022-09-13T12:49:55;22.00;99.90
7002;DHT22;3541;53.230;10.518;2022-09-13T12:52:32;22.00;99.90
7002;DHT22;3541;53.230;10.518;2022-09-13T12:58:21;21.60;99.90
7002;DHT22;3541;53.230;10.518;2022-09-13T13:01:04;21.30;99.90
7002;DHT22;3541;53.230;10.518;2022-09-13T13:03:41;21.20;99.90
7002;DHT22;3541;53.230;10.518;2022-09-13T13:06:18;21.00;99.90
7002;DHT22;3541;53.230;10.518;2022-09-13T13:08:49;20.90;99.90
7002;DHT22;3541;53.230;10.518;2022-09-13T13:11:20;21.20;99.90
7002;DHT22;3541;53.230;10.518;2022-09-13T13:13:54;21.50;99.90
7002;DHT22;3541;53.230;10.518;2022-09-13T13:16:24;21.70;99.90
7002;DHT22;3541;53.230;10.518;2022-09-13T13:18:52;21.80;99.90
7002;DHT22;3541;53.230;10.518;2022-09-13T13:21:29;22.00;99.90
7002;DHT22;3541;53.230;10.518;2022-09-13T13:24:45;22.10;99.90
7002;DHT22;3541;53.230;10.518;2022-09-13T13:27:42;22.30;99.90
7002;DHT22;3541;53.230;10.518;2022-09-13T13:33:23;22.40;99.90
7002;DHT22;3541;53.230;10.518;2022-09-13T13:35:51;22.00;99.90
7002;DHT22;3541;53.230;10.518;2022-09-13T13:38:39;21.80;99.90
7002;DHT22;3541;53.230;10.518;2022-09-13T13:41:46;22.00;99.90
7002;DHT22;3541;53.230;10.518;2022-09-13T13:47:50;22.40;99.90
7002;DHT22;3541;53.230;10.518;2022-09-13T13:50:19;22.50;99.90
7002;DHT22;3541;53.230;10.518;2022-09-13T13:52:52;22.70;99.90
7002;DHT22;3541;53.230;10.518;2022-09-13T13:55:29;22.80;99.90
7002;DHT22;3541;53.230;10.518;2022-09-13T13:58:02;22.80;99.90
7002;DHT22;3541;53.230;10.518;2022-09-13T14:00:32;22.90;99.90
7002;DHT22;3541;53.230;10.518;2022-09-13T14:03:10;22.80;99.90
7002;DHT22;3541;53.230;10.518;2022-09-13T14:05:42;22.80;99.90
7002;DHT22;3541;53.230;10.518;2022-09-13T14:08:25;22.50;99.90
7002;DHT22;3541;53.230;10.518;2022-09-13T14:11:02;22.60;99.90
7002;DHT22;3541;53.230;10.518;2022-09-13T14:13:42;22.80;99.90
7002;DHT22;3541;53.230;10.518;2022-09-13T14:16:20;22.80;99.90
7002;DHT22;3541;53.230;10.518;2022-09-13T14:19:03;22.90;99.90
7002;DHT22;3541;53.230;10.518;2022-09-13T14:21:31;23.10;99.90
7002;DHT22;3541;53.230;10.518;2022-09-13T14:24:17;23.30;99.90
7002;DHT22;3541;53.230;10.518;2022-09-13T14:26:45;23.60;99.90
7002;DHT22;3541;53.230;10.518;2022-09-13T14:29:16;23.90;99.90
7002;DHT22;3541;53.230;10.518;2022-09-13T14:31:48;24.00;99.90
7002;DHT22;3541;53.230;10.518;2022-09-13T14:34:23;23.80;99.90
7002;DHT22;3541;53.230;10.518;2022-09-13T14:36:52;24.00;99.90
7002;DHT22;3541;53.230;10.518;2022-09-13T14:39:19;23.70;99.90
7002;DHT22;3541;53.230;10.518;2022-09-13T14:41:45;23.60;99.90
7002;DHT22;3541;53.230;10.518;2022-09-13T14:44:20;23.80;99.90
7002;DHT22;3541;53.230;10.518;2022-09-13T14:46:51;23.80;99.90
7002;DHT22;3541;53.230;10.518;2022-09-13T14:49:23;23.60;99.90
7002;DHT22;3541;53.230;10.518;2022-09-13T14:51:53;23.50;99.90
7002;DHT22;3541;53.230;10.518;2022-09-13T14:54:31;23.60;99.90
7002;DHT22;3541;53.230;10.518;2022-09-13T14:57:00;23.80;99.90
7002;DHT22;3541;53.230;10.518;2022-09-13T14:59:32;23.80;99.90
7002;DHT22;3541;53.230;10.518;2022-09-13T15:02:05;23.80;99.90
7002;DHT22;3541;53.230;10.518;2022-09-13T15:04:32;23.90;99.90
7002;DHT22;3541;53.230;10.518;2022-09-13T15:07:06;23.80;99.90
7002;DHT22;3541;53.230;10.518;2022-09-13T15:09:33;23.70;99.90
7002;DHT22;3541;53.230;10.518;2022-09-13T15:12:03;23.60;99.90
7002;DHT22;3541;53.230;10.518;2022-09-13T15:14:32;23.60;99.90
7002;DHT22;3541;53.230;10.518;2022-09-13T15:17:06;23.50;99.90
7002;DHT22;3541;53.230;10.518;2022-09-13T15:19:39;23.40;99.90
7002;DHT22;3541;53.230;10.518;2022-09-13T15:22:24;23.40;99.90
7002;DHT22;3541;53.230;10.518;2022-09-13T15:24:53;23.60;99.90
7002;DHT22;3541;53.230;10.518;2022-09-13T15:27:28;23.50;99.90
7002;DHT22;3541;53.230;10.518;2022-09-13T15:29:58;23.60;99.90
7002;DHT22;3541;53.230;10.518;2022-09-13T15:32:32;23.30;99.90
7002;DHT22;3541;53.230;10.518;2022-09-13T15:35:00;23.20;99.90
7002;DHT22;3541;53.230;10.518;2022-09-13T15:37:30;23.20;99.90
7002;DHT22;3541;53.230;10.518;2022-09-13T15:40:17;23.20;99.90
7002;DHT22;3541;53.230;10.518;2022-09-13T15:42:45;23.30;99.90
7002;DHT22;3541;53.230;10.518;2022-09-13T15:45:15;23.00;99.90
7002;DHT22;3541;53.230;10.518;2022-09-13T15:47:44;22.70;99.90
7002;DHT22;3541;53.230;10.518;2022-09-13T15:50:18;22.60;99.90
7002;DHT22;3541;53.230;10.518;2022-09-13T15:52:45;22.60;99.90
7002;DHT22;3541;53.230;10.518;2022-09-13T15:55:12;22.50;99.90
7002;DHT22;3541;53.230;10.518;2022-09-13T15:57:39;22.40;99.90
7002;DHT22;3541;53.230;10.518;2022-09-13T16:00:09;22.30;99.90
7002;DHT22;3541;53.230;10.518;2022-09-13T16:02:38;22.30;99.90
7002;DHT22;3541;53.230;10.518;2022-09-13T16:05:05;22.30;99.90
7002;DHT22;3541;53.230;10.518;2022-09-13T16:07:33;22.10;99.90
7002;DHT22;3541;53.230;10.518;2022-09-13T16:10:00;22.10;99.90
7002;DHT22;3541;53.230;10.518;2022-09-13T16:12:27;22.10;99.90
7002;DHT22;3541;53.230;10.518;2022-09-13T16:14:54;22.00;99.90
7002;DHT22;3541;53.230;10.518;2022-09-13T16:17:23;21.90;99.90
7002;DHT22;3541;53.230;10.518;2022-09-13T16:19:51;21.70;99.90
7002;DHT22;3541;53.230;10.518;2022-09-13T16:22:18;21.70;99.90
7002;DHT22;3541;53.230;10.518;2022-09-13T16:24:45;21.70;99.90
7002;DHT22;3541;53.230;10.518;2022-09-13T16:27:13;21.80;99.90
7002;DHT22;3541;53.230;10.518;2022-09-13T16:29:40;22.10;99.90
7002;DHT22;3541;53.230;10.518;2022-09-13T16:32:07;22.10;99.90
7002;DHT22;3541;53.230;10.518;2022-09-13T16:34:33;22.20;99.90
7002;DHT22;3541;53.230;10.518;2022-09-13T16:37:01;22.20;99.90